Circle, Alaska
Current Conditions -  °F | °C
As of 8:56 PM on Thursday 30 Oct 2014 (Local Time) from PFYU Reporting Station
Broken Clouds Broken Clouds  
Wind Chill:   Ceiling: 2400
Heat Index: 18°   Visibility: 8mi
Dew Point: 14°   Wind: 8mph
Humidity: 86%   Direction: 30°NNE
Pressure: 29.68"   Gusts: 16mph
Location:  65.83°N, 144.07°W
Report Text: PFYU 310456Z 03007G14KT 8SM BKN024 M08/M10 A2968 RMK AO1
Loading
Personal Weather Stations






























Interactive Weather Map
Tropical Storm Tracking
New forecast layout! Learn more

10-Day Weather Forecast

Advertisements
Track Severe Weather on mobile